Time;durP1;ratioP1;P1;durP2;ratioP2;P2;SDS_P1;SDS_P2;PMS_P1;PMS_P2;Temp;Humidity;BMP_temperature;BMP_pressure;BME280_temperature;BME280_humidity;BME280_pressure;Samples;Min_cycle;Max_cycle;Signal;HPM_P1;HPM_P2
2021/12/11 00:00:38;;;;;;;12.52;9.82;;;-1.90;99.90;;;;;;4942713;28;20553;-67
2021/12/11 00:03:12;;;;;;;12.90;9.65;;;-1.90;99.90;;;;;;4959144;28;20061;-67
2021/12/11 00:05:39;;;;;;;11.73;9.57;;;-1.90;99.90;;;;;;4967278;28;20043;-67
2021/12/11 00:08:08;;;;;;;12.52;9.95;;;-1.80;99.90;;;;;;4963379;28;20298;-67
2021/12/11 00:10:47;;;;;;;15.68;10.05;;;-1.80;99.90;;;;;;4942382;28;20035;-67
2021/12/11 00:13:20;;;;;;;10.85;9.18;;;-1.80;99.90;;;;;;4962890;28;20419;-67
2021/12/11 00:15:47;;;;;;;14.52;9.75;;;-1.80;99.90;;;;;;4949618;28;20563;-67
2021/12/11 00:18:19;;;;;;;12.63;8.90;;;-1.80;99.90;;;;;;4963568;28;20082;-67
2021/12/11 00:20:56;;;;;;;11.80;8.38;;;-1.80;99.90;;;;;;4961792;28;20045;-67
2021/12/11 00:23:33;;;;;;;10.45;8.48;;;-1.80;99.90;;;;;;4955310;28;20508;-67
2021/12/11 00:25:59;;;;;;;13.52;9.73;;;-1.70;99.90;;;;;;4955315;28;20035;-67
2021/12/11 00:28:25;;;;;;;11.05;8.90;;;-1.80;99.90;;;;;;4964273;28;20392;-67
2021/12/11 00:30:52;;;;;;;9.25;8.32;;;-1.80;99.90;;;;;;4958022;28;20514;-67
2021/12/11 00:33:25;;;;;;;20.38;13.13;;;-1.80;99.90;;;;;;4964182;28;20573;-67
2021/12/11 00:35:53;;;;;;;15.98;11.32;;;-1.80;99.90;;;;;;4945853;28;20045;-67
2021/12/11 00:38:25;;;;;;;12.38;9.57;;;-1.80;99.90;;;;;;4965490;28;20044;-67
2021/12/11 00:40:53;;;;;;;14.20;9.73;;;-1.80;99.90;;;;;;4958878;28;20041;-66
2021/12/11 00:43:21;;;;;;;11.70;9.13;;;-1.90;99.90;;;;;;4960939;28;20039;-66
2021/12/11 00:45:49;;;;;;;11.70;8.70;;;-1.90;99.90;;;;;;4961453;28;20043;-67
2021/12/11 00:48:19;;;;;;;12.65;9.15;;;-1.90;99.90;;;;;;4950417;28;20487;-67
2021/12/11 00:51:01;;;;;;;11.85;9.57;;;-1.90;99.90;;;;;;4939940;28;20102;-67
2021/12/11 00:53:42;;;;;;;15.02;9.63;;;-1.90;99.90;;;;;;4959636;28;20050;-67
2021/12/11 00:56:16;;;;;;;18.08;11.27;;;-1.90;99.90;;;;;;4953586;28;20061;-66
2021/12/11 00:58:43;;;;;;;13.40;10.60;;;-1.90;99.90;;;;;;4966357;28;20130;-67
2021/12/11 01:01:11;;;;;;;13.68;10.45;;;-1.90;99.90;;;;;;4940700;28;20056;-66
2021/12/11 01:03:57;;;;;;;12.23;9.15;;;-1.90;99.90;;;;;;4942189;28;20050;-66
2021/12/11 01:06:39;;;;;;;10.88;9.23;;;-1.90;99.90;;;;;;4929684;28;20101;-67
2021/12/11 01:09:29;;;;;;;12.52;9.75;;;-2.00;99.90;;;;;;4967519;28;20411;-67
2021/12/11 01:12:04;;;;;;;13.38;10.88;;;-2.00;99.90;;;;;;4950237;28;20051;-67
2021/12/11 01:14:38;;;;;;;11.85;9.70;;;-2.00;99.90;;;;;;4963561;28;20110;-67
2021/12/11 01:17:10;;;;;;;11.00;8.77;;;-2.00;99.90;;;;;;4957228;28;20059;-66
2021/12/11 01:19:39;;;;;;;12.68;9.52;;;-2.00;99.90;;;;;;4942540;28;20416;-66
2021/12/11 01:22:23;;;;;;;12.23;9.38;;;-2.00;99.90;;;;;;4959857;28;20348;-67
2021/12/11 01:24:52;;;;;;;11.40;9.52;;;-2.00;99.90;;;;;;4946995;28;20043;-67
2021/12/11 01:27:22;;;;;;;11.57;8.80;;;-2.00;99.90;;;;;;4964197;28;20487;-66
2021/12/11 01:29:56;;;;;;;12.35;8.90;;;-2.00;99.90;;;;;;4941919;28;20049;-66
2021/12/11 01:32:24;;;;;;;12.10;9.45;;;-2.00;99.90;;;;;;4952669;28;20049;-67
2021/12/11 01:34:50;;;;;;;11.40;9.52;;;-2.00;99.90;;;;;;4945121;28;20439;-67
2021/12/11 01:37:17;;;;;;;9.75;8.27;;;-1.90;99.90;;;;;;4940060;28;20042;-66
2021/12/11 01:39:43;;;;;;;11.75;9.50;;;-2.00;99.90;;;;;;4961607;28;20042;-66
2021/12/11 01:42:31;;;;;;;10.63;9.50;;;-2.00;99.90;;;;;;4958929;28;20495;-67
2021/12/11 01:44:59;;;;;;;11.10;8.80;;;-2.00;99.90;;;;;;4942383;28;20050;-66
2021/12/11 01:47:32;;;;;;;11.43;8.93;;;-2.00;99.90;;;;;;4941776;28;20575;-66
2021/12/11 01:50:31;;;;;;;11.55;8.73;;;-2.10;99.90;;;;;;4964256;28;20109;-67
2021/12/11 01:53:03;;;;;;;9.60;7.88;;;-2.10;99.90;;;;;;4924528;28;20066;-67
2021/12/11 01:55:47;;;;;;;9.45;8.05;;;-2.10;99.90;;;;;;4963169;28;20038;-67
2021/12/11 01:58:20;;;;;;;10.80;9.00;;;-2.20;99.90;;;;;;4942859;28;20074;-67
2021/12/11 02:00:50;;;;;;;10.70;8.20;;;-2.20;99.90;;;;;;4963929;28;20039;-67
2021/12/11 02:03:22;;;;;;;11.65;9.50;;;-2.20;99.90;;;;;;4957901;28;20034;-67
2021/12/11 02:05:49;;;;;;;9.93;8.23;;;-2.20;99.90;;;;;;4949220;28;20133;-67
2021/12/11 02:08:19;;;;;;;10.80;8.15;;;-2.20;99.90;;;;;;4937561;28;20074;-67
2021/12/11 02:10:55;;;;;;;12.60;8.23;;;-2.20;99.90;;;;;;4962374;28;20335;-67
2021/12/11 02:13:36;;;;;;;10.80;9.00;;;-2.20;99.90;;;;;;4956855;28;20078;-67
2021/12/11 02:16:05;;;;;;;10.07;8.15;;;-2.30;99.90;;;;;;4938340;28;20419;-67
2021/12/11 02:18:36;;;;;;;11.73;8.18;;;-2.40;99.90;;;;;;4945465;28;20040;-67
2021/12/11 02:21:01;;;;;;;11.50;9.00;;;-2.40;99.90;;;;;;4938983;29;20043;-67
2021/12/11 02:23:28;;;;;;;11.43;8.30;;;-2.40;99.90;;;;;;4948607;28;20046;-67
2021/12/11 02:26:00;;;;;;;11.63;8.68;;;-2.40;99.90;;;;;;4942029;28;20130;-67
2021/12/11 02:28:54;;;;;;;10.05;8.18;;;-2.40;99.90;;;;;;4939997;29;20039;-67
2021/12/11 02:31:29;;;;;;;11.00;8.40;;;-2.40;99.90;;;;;;4940308;28;20047;-67
2021/12/11 02:34:27;;;;;;;10.65;8.35;;;-2.40;99.90;;;;;;4934255;28;20086;-67
2021/12/11 02:37:01;;;;;;;10.35;8.55;;;-2.50;99.90;;;;;;4949833;28;20063;-67
2021/12/11 02:39:36;;;;;;;10.90;8.80;;;-2.50;99.90;;;;;;4938607;28;20054;-67
2021/12/11 02:42:26;;;;;;;10.70;9.60;;;-2.50;99.90;;;;;;4942254;28;20039;-67
2021/12/11 02:45:05;;;;;;;15.98;9.07;;;-2.60;99.90;;;;;;4940047;28;20035;-67
2021/12/11 02:47:38;;;;;;;9.95;8.10;;;-2.60;99.90;;;;;;4943643;28;20433;-67
2021/12/11 02:50:36;;;;;;;14.30;10.23;;;-2.60;99.90;;;;;;4935598;28;20683;-67
2021/12/11 02:53:34;;;;;;;14.07;10.68;;;-2.60;99.90;;;;;;4944692;28;20087;-67
2021/12/11 02:56:16;;;;;;;14.63;11.02;;;-2.60;99.90;;;;;;4934069;28;20055;-67
2021/12/11 02:58:47;;;;;;;14.32;10.82;;;-2.60;99.90;;;;;;4943714;28;20123;-67
2021/12/11 03:01:24;;;;;;;11.98;10.07;;;-2.60;99.90;;;;;;4939696;28;20094;-67
2021/12/11 03:03:58;;;;;;;13.65;10.32;;;-2.60;99.90;;;;;;4948768;29;20046;-67
2021/12/11 03:06:27;;;;;;;10.43;8.55;;;-2.60;99.90;;;;;;4933325;28;20051;-67
2021/12/11 03:08:58;;;;;;;14.55;10.45;;;-2.60;99.90;;;;;;4948511;28;20070;-67
2021/12/11 03:11:27;;;;;;;12.68;10.23;;;-2.70;99.90;;;;;;4940924;28;20043;-67
2021/12/11 03:13:55;;;;;;;14.23;11.20;;;-2.70;99.90;;;;;;4948717;28;20047;-67
2021/12/11 03:16:28;;;;;;;13.27;10.55;;;-2.70;99.90;;;;;;4947246;28;20054;-67
2021/12/11 03:18:56;;;;;;;13.80;10.35;;;-2.70;99.90;;;;;;4946619;28;20083;-67
2021/12/11 03:21:22;;;;;;;14.13;10.70;;;-2.70;99.90;;;;;;4935456;28;20885;-67
2021/12/11 03:23:49;;;;;;;15.23;11.27;;;-2.70;99.90;;;;;;4949499;28;20107;-67
2021/12/11 03:26:14;;;;;;;16.85;12.57;;;-2.70;99.90;;;;;;4940556;28;20043;-67
2021/12/11 03:28:42;;;;;;;16.13;13.00;;;-2.70;99.90;;;;;;4963015;28;20396;-67
2021/12/11 03:31:11;;;;;;;19.30;13.35;;;-2.70;99.90;;;;;;4964331;28;20053;-67
2021/12/11 03:33:41;;;;;;;17.48;11.93;;;-2.70;99.90;;;;;;4961215;28;20394;-67
2021/12/11 03:36:11;;;;;;;16.15;12.73;;;-2.70;99.90;;;;;;4932674;28;20158;-67
2021/12/11 03:38:40;;;;;;;19.48;13.77;;;-2.80;99.90;;;;;;4963124;28;20051;-67
2021/12/11 03:41:06;;;;;;;19.75;12.85;;;-2.80;99.90;;;;;;4952043;28;20034;-67
2021/12/11 03:43:32;;;;;;;15.90;12.32;;;-2.80;99.90;;;;;;4952482;28;20036;-67
2021/12/11 03:46:03;;;;;;;17.25;12.30;;;-2.80;99.90;;;;;;4947282;28;20058;-67
2021/12/11 03:48:35;;;;;;;16.48;12.18;;;-2.80;99.90;;;;;;4958374;28;20067;-66
2021/12/11 03:51:05;;;;;;;17.65;12.60;;;-2.80;99.90;;;;;;4965914;28;20121;-65
2021/12/11 03:53:30;;;;;;;20.50;12.82;;;-2.80;99.90;;;;;;4961475;28;20035;-67
2021/12/11 03:56:00;;;;;;;20.40;13.23;;;-2.80;99.90;;;;;;4946008;28;20373;-67
2021/12/11 03:58:28;;;;;;;17.33;12.18;;;-2.80;99.90;;;;;;4942771;28;20047;-67
2021/12/11 04:01:06;;;;;;;23.40;14.45;;;-2.90;99.90;;;;;;4968486;28;20519;-67
2021/12/11 04:03:33;;;;;;;20.40;14.02;;;-2.80;99.90;;;;;;4944235;28;20383;-66
2021/12/11 04:06:01;;;;;;;21.77;14.00;;;-2.80;99.90;;;;;;4960275;28;20051;-67
2021/12/11 04:08:37;;;;;;;18.92;14.18;;;-2.80;99.90;;;;;;4960158;28;20043;-67
2021/12/11 04:11:04;;;;;;;23.80;13.88;;;-2.80;99.90;;;;;;4944761;28;20039;-65
2021/12/11 04:13:29;;;;;;;20.42;14.23;;;-2.80;99.90;;;;;;4957190;28;20113;-66
2021/12/11 04:15:55;;;;;;;18.90;13.95;;;-2.80;99.90;;;;;;4945467;28;20229;-66
2021/12/11 04:18:22;;;;;;;20.90;14.07;;;-2.80;99.90;;;;;;4955714;28;20495;-66
2021/12/11 04:20:50;;;;;;;22.95;14.82;;;-2.80;99.90;;;;;;4948770;28;20047;-66
2021/12/11 04:23:17;;;;;;;23.92;16.25;;;-2.90;99.90;;;;;;4956627;28;20130;-66
2021/12/11 04:25:46;;;;;;;23.63;15.05;;;-2.90;99.90;;;;;;4960733;28;20039;-66
2021/12/11 04:28:16;;;;;;;20.65;14.40;;;-2.90;99.90;;;;;;4960664;28;20482;-66
2021/12/11 04:30:42;;;;;;;21.80;14.82;;;-2.90;99.90;;;;;;4953387;28;20492;-66
2021/12/11 04:33:08;;;;;;;21.40;15.65;;;-2.90;99.90;;;;;;4936929;28;20456;-66
2021/12/11 04:35:34;;;;;;;21.90;14.10;;;-2.90;99.90;;;;;;4942350;28;20737;-66
2021/12/11 04:38:03;;;;;;;27.20;15.23;;;-2.90;99.90;;;;;;4947416;28;20035;-66
2021/12/11 04:40:34;;;;;;;22.25;13.93;;;-2.90;99.90;;;;;;4941930;28;20483;-66
2021/12/11 04:43:14;;;;;;;21.33;14.07;;;-3.00;99.90;;;;;;4944117;28;20058;-66
2021/12/11 04:45:47;;;;;;;21.98;15.82;;;-3.00;99.90;;;;;;4958056;28;20043;-66
2021/12/11 04:48:36;;;;;;;25.42;16.15;;;-3.00;99.90;;;;;;4946076;28;20051;-66
2021/12/11 04:51:22;;;;;;;26.80;18.25;;;-3.00;99.90;;;;;;4960347;28;20068;-66
2021/12/11 04:54:04;;;;;;;24.02;16.20;;;-3.00;99.90;;;;;;4961880;28;20034;-66
2021/12/11 05:08:24;;;;;;;22.88;15.75;;;-3.00;99.90;;;;;;4966382;28;20077;-66
2021/12/11 05:10:55;;;;;;;26.63;16.33;;;-3.00;99.90;;;;;;4959414;28;20101;-67
2021/12/11 05:13:22;;;;;;;24.40;16.73;;;-3.00;99.90;;;;;;4968267;28;20130;-66
2021/12/11 05:15:51;;;;;;;26.35;16.73;;;-3.00;99.90;;;;;;4962527;28;20487;-66
2021/12/11 05:18:21;;;;;;;25.65;16.85;;;-3.00;99.90;;;;;;4951996;28;20426;-66
2021/12/11 05:20:49;;;;;;;26.75;17.58;;;-3.00;99.90;;;;;;4941114;28;20074;-66
2021/12/11 05:23:19;;;;;;;25.83;17.80;;;-3.00;99.90;;;;;;4969627;28;20064;-66
2021/12/11 05:25:45;;;;;;;22.05;16.05;;;-3.00;99.90;;;;;;4947776;28;20109;-66
2021/12/11 05:28:11;;;;;;;26.50;16.95;;;-3.10;99.90;;;;;;4935436;28;20046;-66
2021/12/11 05:30:44;;;;;;;23.83;16.92;;;-3.10;99.90;;;;;;4963549;28;20043;-67
2021/12/11 05:33:10;;;;;;;28.65;17.85;;;-3.00;99.90;;;;;;4966092;28;20471;-66
2021/12/11 05:35:39;;;;;;;25.08;17.27;;;-3.00;99.90;;;;;;4950506;28;20541;-66
2021/12/11 05:38:07;;;;;;;29.08;18.88;;;-3.00;99.90;;;;;;4962242;28;20035;-66
2021/12/11 05:40:35;;;;;;;31.38;20.30;;;-3.00;99.90;;;;;;4968715;28;20054;-66
2021/12/11 05:43:02;;;;;;;32.03;19.13;;;-2.90;99.90;;;;;;4958741;28;20107;-66
2021/12/11 05:45:27;;;;;;;36.70;22.48;;;-2.90;99.90;;;;;;4952510;28;20532;-66
2021/12/11 05:47:54;;;;;;;39.30;23.45;;;-2.90;99.90;;;;;;4929008;28;20138;-67
2021/12/11 05:50:28;;;;;;;36.10;21.75;;;-2.80;99.90;;;;;;4946962;28;20043;-67
2021/12/11 05:52:54;;;;;;;34.03;20.73;;;-2.70;99.90;;;;;;4962792;28;20447;-66
2021/12/11 05:55:22;;;;;;;30.63;18.60;;;-2.70;99.90;;;;;;4948658;28;20038;-66
2021/12/11 05:57:53;;;;;;;32.90;20.33;;;-2.70;99.90;;;;;;4943693;28;20089;-67
2021/12/11 06:00:22;;;;;;;34.00;21.98;;;-2.70;99.90;;;;;;4964750;28;20511;-67
2021/12/11 06:02:48;;;;;;;33.78;21.88;;;-2.70;99.90;;;;;;4957025;28;20097;-67
2021/12/11 06:05:14;;;;;;;39.63;22.90;;;-2.70;99.90;;;;;;4965114;28;20149;-68
2021/12/11 06:07:43;;;;;;;34.67;21.55;;;-2.70;99.90;;;;;;4962009;28;20645;-68
2021/12/11 06:10:13;;;;;;;31.83;20.98;;;-2.70;99.90;;;;;;4936624;28;20050;-68
2021/12/11 06:12:39;;;;;;;33.80;20.75;;;-2.70;99.90;;;;;;4956037;28;20043;-68
2021/12/11 06:15:05;;;;;;;30.40;18.95;;;-2.60;99.90;;;;;;4954803;28;20125;-68
2021/12/11 06:17:33;;;;;;;34.45;22.35;;;-2.60;99.90;;;;;;4960661;28;20063;-68
2021/12/11 06:20:02;;;;;;;35.33;20.40;;;-2.60;99.90;;;;;;4965684;28;20083;-68
2021/12/11 06:22:30;;;;;;;34.22;20.50;;;-2.60;99.90;;;;;;4972826;28;20035;-68
2021/12/11 06:25:03;;;;;;;30.52;20.35;;;-2.60;99.90;;;;;;4966018;28;20046;-68
2021/12/11 06:27:29;;;;;;;28.70;20.90;;;-2.60;99.90;;;;;;4952589;28;20067;-68
2021/12/11 06:29:55;;;;;;;32.45;20.88;;;-2.70;99.90;;;;;;4949258;28;20050;-68
2021/12/11 06:32:22;;;;;;;32.05;20.90;;;-2.70;99.90;;;;;;4953224;28;20058;-67
2021/12/11 06:34:49;;;;;;;29.75;19.27;;;-2.70;99.90;;;;;;4946578;28;20081;-68
2021/12/11 06:37:16;;;;;;;25.65;17.67;;;-2.80;99.90;;;;;;4971078;28;20071;-68
2021/12/11 06:39:42;;;;;;;28.20;18.75;;;-2.80;99.90;;;;;;4963987;28;20403;-68
2021/12/11 06:42:09;;;;;;;30.98;20.50;;;-2.90;99.90;;;;;;4954943;28;20085;-68
2021/12/11 06:44:37;;;;;;;27.27;19.10;;;-2.90;99.90;;;;;;4943778;28;20039;-68
2021/12/11 06:47:05;;;;;;;31.10;19.63;;;-2.80;99.90;;;;;;4972135;28;20050;-66
2021/12/11 06:49:33;;;;;;;29.35;19.50;;;-2.90;99.90;;;;;;4946139;28;20051;-67
2021/12/11 06:52:00;;;;;;;29.90;20.63;;;-2.90;99.90;;;;;;4952735;28;20046;-67
2021/12/11 06:54:26;;;;;;;28.70;17.83;;;-2.90;99.90;;;;;;4967923;28;20035;-68
2021/12/11 06:56:54;;;;;;;30.60;19.65;;;-2.90;99.90;;;;;;4955589;28;20089;-68
2021/12/11 06:59:20;;;;;;;31.90;20.73;;;-2.90;99.90;;;;;;4945886;28;20142;-66
2021/12/11 07:01:46;;;;;;;27.60;18.65;;;-2.90;99.90;;;;;;4956826;28;20549;-66
2021/12/11 07:04:13;;;;;;;31.42;19.70;;;-2.90;99.90;;;;;;4965543;28;20061;-66
2021/12/11 07:06:42;;;;;;;27.67;18.90;;;-2.90;99.90;;;;;;4947616;28;20043;-66
2021/12/11 07:09:10;;;;;;;39.20;26.45;;;-2.90;99.90;;;;;;4976779;28;20035;-66
2021/12/11 07:11:39;;;;;;;90.68;60.88;;;-3.00;99.90;;;;;;4947589;28;20437;-66
2021/12/11 07:14:06;;;;;;;126.78;82.15;;;-3.00;99.90;;;;;;4950908;28;20110;-66
2021/12/11 07:16:33;;;;;;;96.00;65.22;;;-3.00;99.90;;;;;;4964732;28;20437;-67
2021/12/11 07:19:00;;;;;;;57.08;36.20;;;-3.00;99.90;;;;;;4952711;28;20046;-67
2021/12/11 07:21:26;;;;;;;42.97;29.25;;;-3.10;99.90;;;;;;4959236;28;20483;-67
2021/12/11 07:23:51;;;;;;;40.58;25.17;;;-3.10;99.90;;;;;;4954129;28;20053;-66
2021/12/11 07:26:29;;;;;;;31.30;21.83;;;-3.10;99.90;;;;;;4963765;28;20125;-66
2021/12/11 07:28:57;;;;;;;35.75;21.73;;;-3.10;99.90;;;;;;4951532;28;20372;-66
2021/12/11 07:31:24;;;;;;;33.08;21.98;;;-3.10;99.90;;;;;;4962576;28;20079;-67
2021/12/11 07:33:51;;;;;;;28.85;18.95;;;-3.20;99.90;;;;;;4937984;28;20340;-67
2021/12/11 07:36:17;;;;;;;28.70;19.75;;;-3.10;99.90;;;;;;4961908;28;20039;-67
2021/12/11 07:38:43;;;;;;;27.85;18.95;;;-3.20;99.90;;;;;;4952759;28;20108;-67
2021/12/11 07:41:11;;;;;;;27.23;18.77;;;-3.20;99.90;;;;;;4946166;28;20500;-67
2021/12/11 07:43:39;;;;;;;26.20;18.92;;;-3.20;99.90;;;;;;4951826;28;20063;-67
2021/12/11 07:46:07;;;;;;;29.98;19.00;;;-3.20;99.90;;;;;;4962603;28;20058;-68
2021/12/11 07:48:33;;;;;;;268.60;205.30;;;-3.20;99.90;;;;;;4970966;28;20082;-68
2021/12/11 07:50:59;;;;;;;33.45;23.20;;;-3.20;99.90;;;;;;4945949;28;20043;-68
2021/12/11 07:53:25;;;;;;;37.08;24.70;;;-3.20;99.90;;;;;;4961755;28;20219;-68
2021/12/11 07:55:54;;;;;;;38.20;25.25;;;-3.20;99.90;;;;;;4966406;28;20065;-68
2021/12/11 07:58:20;;;;;;;32.05;21.00;;;-3.20;99.90;;;;;;4959910;28;20043;-68
2021/12/11 08:00:47;;;;;;;31.23;21.77;;;-3.10;99.90;;;;;;4961834;28;20097;-68
2021/12/11 08:03:14;;;;;;;31.55;21.05;;;-3.10;99.90;;;;;;4956883;28;20052;-68
2021/12/11 08:05:42;;;;;;;28.30;20.52;;;-3.10;99.90;;;;;;4969440;28;20049;-67
2021/12/11 08:08:10;;;;;;;24.88;19.20;;;-3.20;99.90;;;;;;4961791;28;20127;-67
2021/12/11 08:10:37;;;;;;;28.77;20.35;;;-3.10;99.90;;;;;;4971162;28;20046;-67
2021/12/11 08:13:04;;;;;;;26.40;18.75;;;-3.10;99.90;;;;;;4961025;28;20046;-67
2021/12/11 08:15:31;;;;;;;28.55;19.20;;;-3.10;99.90;;;;;;4968064;28;20592;-67
2021/12/11 08:17:57;;;;;;;28.98;19.77;;;-3.10;99.90;;;;;;4963576;28;20573;-67
2021/12/11 08:20:30;;;;;;;29.65;19.45;;;-3.00;99.90;;;;;;4954443;28;20121;-67
2021/12/11 08:22:57;;;;;;;26.90;18.52;;;-3.00;99.90;;;;;;4945225;28;20061;-67
2021/12/11 08:25:26;;;;;;;27.20;18.65;;;-3.00;99.90;;;;;;4952846;28;20082;-67
2021/12/11 08:27:54;;;;;;;27.75;19.52;;;-3.00;99.90;;;;;;4943499;28;20067;-67
2021/12/11 08:30:20;;;;;;;29.15;19.20;;;-2.90;99.90;;;;;;4938783;28;20101;-67
2021/12/11 08:32:46;;;;;;;32.15;18.42;;;-2.90;99.90;;;;;;4964365;28;20340;-67
2021/12/11 08:35:14;;;;;;;28.85;19.55;;;-2.80;99.90;;;;;;4953598;28;20042;-67
2021/12/11 08:37:43;;;;;;;30.10;20.15;;;-2.80;99.90;;;;;;4969097;28;20043;-67
2021/12/11 08:40:15;;;;;;;23.98;18.80;;;-2.80;99.90;;;;;;4943260;28;20090;-67
2021/12/11 08:42:41;;;;;;;30.23;20.60;;;-2.70;99.90;;;;;;4947019;28;20140;-67
2021/12/11 08:45:11;;;;;;;33.10;21.98;;;-2.70;99.90;;;;;;4941935;28;20070;-67
2021/12/11 08:47:41;;;;;;;31.20;22.48;;;-2.60;99.90;;;;;;4949149;28;20051;-67
2021/12/11 08:50:11;;;;;;;36.83;24.25;;;-2.50;99.90;;;;;;4946729;28;20051;-67
2021/12/11 08:52:39;;;;;;;217.02;157.45;;;-2.50;99.90;;;;;;4933281;29;20055;-67
2021/12/11 08:55:10;;;;;;;379.27;255.48;;;-2.40;99.90;;;;;;4957645;28;20558;-67
2021/12/11 08:57:39;;;;;;;63.63;40.90;;;-2.30;99.90;;;;;;4947575;28;20055;-67
2021/12/11 09:00:38;;;;;;;46.97;32.70;;;-2.30;99.90;;;;;;4961936;28;20395;-67
2021/12/11 09:03:10;;;;;;;44.17;26.92;;;-2.20;99.90;;;;;;4943898;29;20078;-67
2021/12/11 09:05:45;;;;;;;41.78;27.25;;;-2.10;99.90;;;;;;4945468;28;20050;-67
2021/12/11 09:08:23;;;;;;;;;;;-2.00;99.90;;;;;;4964191;28;20050;-67
2021/12/11 09:10:54;;;;;;;42.92;26.55;;;-1.90;99.90;;;;;;4939394;28;19941;-67
2021/12/11 09:13:33;;;;;;;43.72;27.48;;;-1.90;99.90;;;;;;4966465;28;20075;-67
2021/12/11 09:16:29;;;;;;;42.58;27.55;;;-1.80;99.90;;;;;;4936999;28;20039;-67
2021/12/11 09:19:07;;;;;;;48.90;28.58;;;-1.70;99.90;;;;;;4944041;28;20048;-67
2021/12/11 09:21:40;;;;;;;45.42;28.73;;;-1.60;99.90;;;;;;4955278;28;20042;-67
2021/12/11 09:24:11;;;;;;;47.05;29.92;;;-1.50;99.90;;;;;;4945381;28;20081;-67
2021/12/11 09:26:50;;;;;;;51.08;31.92;;;-1.40;99.90;;;;;;4953994;28;20055;-67
2021/12/11 09:29:18;;;;;;;49.97;31.17;;;-1.30;99.90;;;;;;4948350;28;20158;-67
2021/12/11 09:31:57;;;;;;;50.33;31.25;;;-1.20;99.90;;;;;;4955409;28;20094;-67
2021/12/11 09:34:27;;;;;;;50.20;31.30;;;-1.10;99.90;;;;;;4965409;28;20062;-67
2021/12/11 09:36:59;;;;;;;55.47;33.75;;;-1.00;99.90;;;;;;4943365;28;20126;-67
2021/12/11 09:39:35;;;;;;;58.67;32.85;;;-0.90;99.90;;;;;;4967685;28;20047;-67
2021/12/11 09:42:00;;;;;;;50.83;31.45;;;-0.70;99.90;;;;;;4957281;28;20125;-67
2021/12/11 09:44:29;;;;;;;52.65;31.45;;;-0.60;99.90;;;;;;4944284;28;20146;-67
2021/12/11 09:47:22;;;;;;;51.97;32.45;;;-0.50;99.90;;;;;;4953465;28;20106;-67
2021/12/11 09:49:56;;;;;;;53.13;32.80;;;-0.40;99.90;;;;;;4960604;28;20054;-67
2021/12/11 09:52:25;;;;;;;50.95;32.60;;;-0.30;99.90;;;;;;4938645;28;20031;-67
2021/12/11 09:55:08;;;;;;;54.85;33.45;;;-0.20;99.90;;;;;;4945128;28;20049;-67
2021/12/11 09:57:38;;;;;;;52.70;34.30;;;-0.20;99.90;;;;;;4941604;28;20050;-67
2021/12/11 10:00:13;;;;;;;56.95;36.95;;;-0.10;99.90;;;;;;4962433;28;20083;-67
2021/12/11 10:02:39;;;;;;;;;;;-0.10;99.90;;;;;;4958667;28;20175;-67
2021/12/11 10:05:29;;;;;;;54.83;34.40;;;-0.10;99.90;;;;;;4960443;28;20298;-67
2021/12/11 10:08:26;;;;;;;58.05;34.67;;;0.00;99.90;;;;;;4936003;28;20051;-67
2021/12/11 10:10:54;;;;;;;50.17;31.98;;;0.00;99.90;;;;;;4949338;28;20046;-67
2021/12/11 10:13:20;;;;;;;57.22;34.25;;;0.10;99.90;;;;;;4939839;28;20067;-66
2021/12/11 10:15:46;;;;;;;51.90;33.28;;;0.10;99.90;;;;;;4946315;28;20057;-66
2021/12/11 10:18:19;;;;;;;44.17;31.15;;;0.20;99.90;;;;;;4955828;28;20051;-66
2021/12/11 10:21:05;;;;;;;44.92;31.65;;;0.30;99.90;;;;;;4958673;28;20051;-66
2021/12/11 10:23:35;;;;;;;49.75;32.95;;;0.30;99.90;;;;;;4956427;28;20538;-66
2021/12/11 10:26:07;;;;;;;45.35;32.40;;;0.40;99.90;;;;;;4959041;28;20031;-67
2021/12/11 10:28:33;;;;;;;52.05;34.38;;;0.40;99.90;;;;;;4954908;28;20110;-67
2021/12/11 10:31:09;;;;;;;52.90;33.97;;;0.40;99.90;;;;;;4945713;28;20047;-67
2021/12/11 10:33:36;;;;;;;45.88;31.98;;;0.50;99.90;;;;;;4953957;28;20476;-67
2021/12/11 10:36:06;;;;;;;53.17;34.05;;;0.50;99.90;;;;;;4959015;28;20039;-67
2021/12/11 10:38:33;;;;;;;53.92;35.20;;;0.50;99.90;;;;;;4954197;28;20054;-67
2021/12/11 10:41:03;;;;;;;47.17;32.95;;;0.60;99.90;;;;;;4947578;28;20043;-68
2021/12/11 10:43:42;;;;;;;49.35;32.45;;;0.60;99.90;;;;;;4953742;28;20507;-68
2021/12/11 10:46:13;;;;;;;48.88;32.65;;;0.70;99.90;;;;;;4946948;28;20392;-68
2021/12/11 10:48:39;;;;;;;51.25;33.67;;;0.70;99.90;;;;;;4936425;28;20073;-68
2021/12/11 10:51:09;;;;;;;54.30;37.72;;;0.70;99.90;;;;;;4938291;28;20047;-68
2021/12/11 10:53:38;;;;;;;54.08;35.83;;;0.80;99.90;;;;;;4959248;28;20163;-68
2021/12/11 10:56:06;;;;;;;59.42;37.72;;;0.80;99.90;;;;;;4961656;28;20031;-68
2021/12/11 10:58:38;;;;;;;55.92;35.75;;;0.90;99.90;;;;;;4934419;28;20404;-68
2021/12/11 11:01:10;;;;;;;55.90;35.97;;;1.00;99.90;;;;;;4953901;28;20483;-67
2021/12/11 11:03:40;;;;;;;53.20;35.33;;;1.00;99.90;;;;;;4954321;28;20420;-67
2021/12/11 11:06:06;;;;;;;55.90;36.50;;;1.10;99.90;;;;;;4951229;28;20050;-67
2021/12/11 11:08:33;;;;;;;59.42;37.80;;;1.10;99.90;;;;;;4966030;28;20528;-69
2021/12/11 11:11:06;;;;;;;51.05;35.40;;;1.20;99.90;;;;;;4962576;28;20062;-67
2021/12/11 11:13:32;;;;;;;50.08;34.03;;;1.20;99.90;;;;;;4967311;28;20042;-67
2021/12/11 11:15:58;;;;;;;58.60;35.80;;;1.30;99.90;;;;;;4957545;28;20407;-67
2021/12/11 11:18:28;;;;;;;58.72;36.60;;;1.30;99.90;;;;;;4972522;28;20050;-67
2021/12/11 11:21:17;;;;;;;49.88;35.65;;;1.30;99.90;;;;;;4963639;28;20035;-67
2021/12/11 11:23:45;;;;;;;77.25;38.38;;;1.40;99.90;;;;;;4950865;28;20055;-67
2021/12/11 11:26:17;;;;;;;51.60;35.40;;;1.40;99.90;;;;;;4961819;28;20074;-67
2021/12/11 11:28:43;;;;;;;49.10;33.65;;;1.40;99.90;;;;;;4971586;28;20537;-67
2021/12/11 11:31:19;;;;;;;61.88;34.97;;;1.40;99.90;;;;;;4960527;28;20380;-67
2021/12/11 11:33:47;;;;;;;47.80;33.75;;;1.40;99.90;;;;;;4967366;28;20035;-67
2021/12/11 11:36:16;;;;;;;49.70;33.15;;;1.40;99.90;;;;;;4958521;28;20047;-67
2021/12/11 11:38:46;;;;;;;53.38;34.50;;;1.50;99.90;;;;;;4971686;28;20043;-67
2021/12/11 11:41:18;;;;;;;54.60;33.72;;;1.50;99.90;;;;;;4932001;28;20042;-67
2021/12/11 11:43:45;;;;;;;58.65;34.97;;;1.60;99.90;;;;;;4961534;28;20078;-67
2021/12/11 11:46:12;;;;;;;55.72;35.28;;;1.60;99.90;;;;;;4953202;28;20545;-67
2021/12/11 11:48:48;;;;;;;60.97;35.47;;;1.70;99.90;;;;;;4946689;28;20071;-67
2021/12/11 11:51:24;;;;;;;55.33;36.35;;;1.90;99.90;;;;;;4956584;28;20039;-66
2021/12/11 11:53:50;;;;;;;52.92;33.03;;;2.00;99.90;;;;;;4963248;28;20498;-67
2021/12/11 11:56:19;;;;;;;54.50;32.78;;;2.10;99.90;;;;;;4939106;28;20132;-67
2021/12/11 11:58:45;;;;;;;57.85;33.25;;;2.20;99.90;;;;;;4963783;28;20086;-66
2021/12/11 12:01:14;;;;;;;64.28;40.47;;;2.20;99.90;;;;;;4944482;28;20325;-66
2021/12/11 12:03:40;;;;;;;53.60;34.13;;;2.30;99.90;;;;;;4963855;28;20039;-67
2021/12/11 12:06:11;;;;;;;54.85;32.20;;;2.30;99.90;;;;;;4950850;28;20047;-67
2021/12/11 12:08:38;;;;;;;49.33;32.17;;;2.30;99.90;;;;;;4946928;28;20501;-66
2021/12/11 12:11:05;;;;;;;51.38;31.55;;;2.30;99.90;;;;;;4957939;28;20035;-67
2021/12/11 12:13:32;;;;;;;51.60;31.45;;;2.40;99.90;;;;;;4957338;28;20046;-67
2021/12/11 12:16:05;;;;;;;47.55;32.22;;;2.40;99.90;;;;;;4939844;28;20094;-67
2021/12/11 12:18:32;;;;;;;56.30;32.85;;;2.50;99.90;;;;;;4959716;28;20117;-67
2021/12/11 12:20:59;;;;;;;47.63;30.02;;;2.50;99.90;;;;;;4943920;28;20545;-67
2021/12/11 12:23:31;;;;;;;52.28;30.38;;;2.60;99.90;;;;;;4957565;28;20130;-67
2021/12/11 12:26:03;;;;;;;49.10;29.35;;;2.70;99.90;;;;;;4959750;28;20051;-67
2021/12/11 12:28:29;;;;;;;51.03;29.65;;;2.80;99.90;;;;;;4942542;28;20046;-67
2021/12/11 12:31:01;;;;;;;40.95;27.98;;;2.90;99.90;;;;;;4964718;28;20063;-67
2021/12/11 12:33:28;;;;;;;49.65;30.25;;;3.10;99.90;;;;;;4956628;28;20129;-67
2021/12/11 12:35:55;;;;;;;44.72;30.30;;;3.20;99.90;;;;;;4947079;28;20046;-67
2021/12/11 12:38:24;;;;;;;44.70;29.23;;;3.40;99.90;;;;;;4939589;28;20412;-67
2021/12/11 12:41:00;;;;;;;45.20;26.70;;;3.50;99.90;;;;;;4965802;28;20451;-67
2021/12/11 12:46:40;;;;;;;40.45;27.00;;;3.70;99.90;;;;;;4969085;28;20121;-66
2021/12/11 12:49:07;;;;;;;45.03;26.45;;;3.70;99.90;;;;;;4942301;28;20558;-66
2021/12/11 12:51:34;;;;;;;38.92;25.83;;;3.80;99.90;;;;;;4947779;28;20048;-66
2021/12/11 12:54:02;;;;;;;40.42;25.67;;;3.80;99.90;;;;;;4961082;28;20134;-65
2021/12/11 12:56:32;;;;;;;38.40;24.98;;;4.00;99.90;;;;;;4959760;28;20045;-66
2021/12/11 12:59:00;;;;;;;41.03;24.67;;;4.00;99.90;;;;;;4955119;28;20413;-66
2021/12/11 13:01:32;;;;;;;43.67;25.50;;;4.10;99.90;;;;;;4957869;28;20051;-66
2021/12/11 13:04:02;;;;;;;35.67;25.65;;;4.10;99.90;;;;;;4955768;28;20547;-66